Time;durP1;ratioP1;P1;durP2;ratioP2;P2;SDS_P1;SDS_P2;PMS_P1;PMS_P2;Temp;Humidity;BMP_temperature;BMP_pressure;BME280_temperature;BME280_humidity;BME280_pressure;Samples;Min_cycle;Max_cycle;Signal;HPM_P1;HPM_P2
2023/03/31 01:40:16;;;;;;;9.27;4.10;;;;;;;;;;5015724;28;20227;-61
2023/03/31 02:15:43;;;;;;;9.50;5.80;;;;;;;;;;5008890;28;20230;-62
2023/03/31 02:18:16;;;;;;;11.87;5.43;;;;;;;;;;4990659;28;20203;-61
2023/03/31 02:20:42;;;;;;;9.83;5.40;;;;;;;;;;5007938;28;20346;-61
2023/03/31 02:23:09;;;;;;;8.33;5.00;;;;;;;;;;5009029;28;20198;-61
2023/03/31 02:25:41;;;;;;;6.73;4.90;;;;;;;;;;5010971;28;20195;-61
2023/03/31 02:28:09;;;;;;;11.60;5.23;;;;;;;;;;5010055;28;20206;-61
2023/03/31 02:30:58;;;;;;;10.57;5.40;;;;;;;;;;5011370;28;20214;-61
2023/03/31 02:33:24;;;;;;;9.47;4.70;;;;;;;;;;5028390;28;20279;-61
2023/03/31 02:35:51;;;;;;;11.00;5.33;;;;;;;;;;5028211;28;20187;-62
2023/03/31 02:38:20;;;;;;;12.17;5.60;;;;;;;;;;5009064;28;20233;-62
2023/03/31 02:40:47;;;;;;;11.13;5.10;;;;;;;;;;5008387;28;20269;-61
2023/03/31 02:43:16;;;;;;;10.37;5.20;;;;;;;;;;5027691;28;20207;-61
2023/03/31 02:45:43;;;;;;;9.57;5.00;;;;;;;;;;5031142;28;20195;-61
2023/03/31 02:48:13;;;;;;;8.97;5.47;;;;;;;;;;5009314;28;20231;-61
2023/03/31 02:51:06;;;;;;;9.93;5.33;;;;;;;;;;5009578;28;20237;-61
2023/03/31 02:53:43;;;;;;;12.23;5.37;;;;;;;;;;4974773;28;20210;-61
2023/03/31 02:56:14;;;;;;;10.63;5.53;;;;;;;;;;5030838;28;20293;-61
2023/03/31 02:58:47;;;;;;;9.80;5.70;;;;;;;;;;5012742;28;20207;-61
2023/03/31 03:01:29;;;;;;;10.30;5.60;;;;;;;;;;5010176;28;20195;-61
2023/03/31 03:03:58;;;;;;;10.43;6.03;;;;;;;;;;5030624;28;20223;-61
2023/03/31 03:06:31;;;;;;;10.17;6.10;;;;;;;;;;5009754;28;20219;-61
2023/03/31 03:09:01;;;;;;;10.87;5.27;;;;;;;;;;5008375;28;20272;-61
2023/03/31 03:11:31;;;;;;;12.27;6.40;;;;;;;;;;5009061;28;20326;-61
2023/03/31 03:14:18;;;;;;;11.87;6.03;;;;;;;;;;5009605;28;20191;-61
2023/03/31 03:16:49;;;;;;;14.63;6.67;;;;;;;;;;5025753;28;20255;-61
2023/03/31 03:19:19;;;;;;;11.23;5.90;;;;;;;;;;5026578;28;20208;-61
2023/03/31 03:21:46;;;;;;;10.47;5.77;;;;;;;;;;5026697;28;20195;-63
2023/03/31 03:24:16;;;;;;;11.47;5.97;;;;;;;;;;5027461;28;20197;-61
2023/03/31 03:26:43;;;;;;;12.83;6.20;;;;;;;;;;5026879;28;20195;-62
2023/03/31 03:29:14;;;;;;;11.47;6.13;;;;;;;;;;5016750;28;20250;-61
2023/03/31 03:31:41;;;;;;;8.80;6.50;;;;;;;;;;5027249;28;20251;-61
2023/03/31 03:34:08;;;;;;;11.53;5.97;;;;;;;;;;5029535;28;20200;-62
2023/03/31 03:36:36;;;;;;;11.17;6.17;;;;;;;;;;5021898;28;20206;-61
2023/03/31 03:39:03;;;;;;;11.73;6.40;;;;;;;;;;5029876;28;20258;-62
2023/03/31 03:41:30;;;;;;;14.00;6.17;;;;;;;;;;5025562;28;20195;-63
2023/03/31 03:43:57;;;;;;;11.70;6.47;;;;;;;;;;5026586;28;20191;-63
2023/03/31 03:46:25;;;;;;;13.53;7.07;;;;;;;;;;5025713;28;20198;-62
2023/03/31 03:48:52;;;;;;;13.17;6.70;;;;;;;;;;5030080;28;20273;-61
2023/03/31 03:51:19;;;;;;;9.57;6.60;;;;;;;;;;5027154;28;20310;-62
2023/03/31 03:53:46;;;;;;;11.17;6.47;;;;;;;;;;5027325;28;20398;-61
2023/03/31 03:56:13;;;;;;;10.90;6.10;;;;;;;;;;5027761;28;20192;-61
2023/03/31 03:58:39;;;;;;;12.80;6.43;;;;;;;;;;5026633;28;20655;-63
2023/03/31 04:01:09;;;;;;;12.17;6.97;;;;;;;;;;5030142;28;20309;-62
2023/03/31 04:03:36;;;;;;;11.20;6.30;;;;;;;;;;5029108;28;20187;-61
2023/03/31 04:06:04;;;;;;;11.67;6.90;;;;;;;;;;5029619;28;20183;-62
2023/03/31 04:08:31;;;;;;;10.03;6.87;;;;;;;;;;5027043;28;20191;-62
2023/03/31 04:10:59;;;;;;;14.23;7.20;;;;;;;;;;5025022;28;20836;-62
2023/03/31 04:13:25;;;;;;;15.00;7.13;;;;;;;;;;5026583;28;20214;-62
2023/03/31 04:15:52;;;;;;;12.63;6.40;;;;;;;;;;5026283;28;20199;-62
2023/03/31 04:18:22;;;;;;;9.20;6.70;;;;;;;;;;5007700;28;20195;-64
2023/03/31 04:20:53;;;;;;;11.57;7.30;;;;;;;;;;5024908;28;20211;-63
2023/03/31 04:23:22;;;;;;;12.30;7.60;;;;;;;;;;5026472;28;20202;-62
2023/03/31 04:25:52;;;;;;;12.63;7.40;;;;;;;;;;5025073;28;20207;-62
2023/03/31 04:28:19;;;;;;;12.83;6.37;;;;;;;;;;5025730;28;21004;-63
2023/03/31 04:30:45;;;;;;;11.87;7.10;;;;;;;;;;5026896;28;20710;-62
2023/03/31 04:33:14;;;;;;;11.53;7.13;;;;;;;;;;5026687;28;20196;-62
2023/03/31 04:35:51;;;;;;;12.10;7.10;;;;;;;;;;5025219;28;20183;-61
2023/03/31 04:38:19;;;;;;;13.27;6.87;;;;;;;;;;5025201;28;20242;-63
2023/03/31 04:40:49;;;;;;;11.40;6.47;;;;;;;;;;5025506;28;20195;-63
2023/03/31 04:43:16;;;;;;;9.83;5.73;;;;;;;;;;5027609;28;20202;-63
2023/03/31 04:45:43;;;;;;;15.97;6.80;;;;;;;;;;5014506;28;20710;-63
2023/03/31 04:48:09;;;;;;;11.60;6.53;;;;;;;;;;5026759;28;20199;-62
2023/03/31 04:50:36;;;;;;;11.10;6.97;;;;;;;;;;5024551;28;20270;-62
2023/03/31 04:53:04;;;;;;;11.43;7.00;;;;;;;;;;5022751;28;20180;-61
2023/03/31 04:55:31;;;;;;;11.83;6.40;;;;;;;;;;5029631;28;20714;-61
2023/03/31 04:57:58;;;;;;;12.73;6.20;;;;;;;;;;5030574;28;20199;-62
2023/03/31 05:00:25;;;;;;;12.60;6.80;;;;;;;;;;5028483;28;20800;-61
2023/03/31 05:02:52;;;;;;;12.00;7.20;;;;;;;;;;5028700;28;20215;-66
2023/03/31 05:05:19;;;;;;;12.80;7.30;;;;;;;;;;5029788;28;20187;-62
2023/03/31 05:07:45;;;;;;;12.23;7.13;;;;;;;;;;5027979;28;20187;-61
2023/03/31 05:10:12;;;;;;;13.93;8.00;;;;;;;;;;5029732;28;20195;-61
2023/03/31 05:12:38;;;;;;;11.33;7.20;;;;;;;;;;5027690;28;20203;-61
2023/03/31 05:15:06;;;;;;;11.73;7.90;;;;;;;;;;5017532;28;20183;-61
2023/03/31 05:17:33;;;;;;;15.00;7.27;;;;;;;;;;5031793;28;20230;-62
2023/03/31 05:20:00;;;;;;;14.80;8.43;;;;;;;;;;5029096;28;20245;-61
2023/03/31 05:22:27;;;;;;;13.13;7.97;;;;;;;;;;5027748;28;20789;-62
2023/03/31 05:24:54;;;;;;;11.87;7.80;;;;;;;;;;5025475;28;20234;-62
2023/03/31 05:27:21;;;;;;;15.53;8.10;;;;;;;;;;5005214;28;20204;-63
2023/03/31 05:29:48;;;;;;;14.93;8.77;;;;;;;;;;5025105;28;20217;-62
2023/03/31 05:32:15;;;;;;;11.73;7.67;;;;;;;;;;5027572;28;20878;-64
2023/03/31 05:34:42;;;;;;;12.23;8.10;;;;;;;;;;5027236;28;20191;-62
2023/03/31 05:37:10;;;;;;;13.03;9.27;;;;;;;;;;5028950;28;20192;-63
2023/03/31 05:39:37;;;;;;;14.97;9.27;;;;;;;;;;5023483;28;20265;-62
2023/03/31 05:42:06;;;;;;;15.13;8.47;;;;;;;;;;5018145;28;20876;-62
2023/03/31 05:44:35;;;;;;;13.63;8.57;;;;;;;;;;5024960;28;20180;-62
2023/03/31 05:47:02;;;;;;;16.53;8.50;;;;;;;;;;5013539;28;20242;-62
2023/03/31 05:49:29;;;;;;;20.10;8.80;;;;;;;;;;5019968;28;20282;-62
2023/03/31 05:51:56;;;;;;;15.70;9.87;;;;;;;;;;5025595;28;20227;-62
2023/03/31 05:54:23;;;;;;;17.70;8.87;;;;;;;;;;5008136;28;20191;-61
2023/03/31 05:56:50;;;;;;;13.33;8.27;;;;;;;;;;5030785;28;20294;-63
2023/03/31 05:59:17;;;;;;;17.03;9.23;;;;;;;;;;5024940;28;20269;-62
2023/03/31 06:01:43;;;;;;;15.57;9.37;;;;;;;;;;5025527;28;20207;-61
2023/03/31 06:04:10;;;;;;;14.97;9.57;;;;;;;;;;5008021;28;20265;-62
2023/03/31 06:06:37;;;;;;;17.37;9.60;;;;;;;;;;5025768;28;20206;-62
2023/03/31 06:09:04;;;;;;;16.97;10.00;;;;;;;;;;5026655;28;20195;-61
2023/03/31 06:11:30;;;;;;;13.40;9.80;;;;;;;;;;5023905;28;20219;-62
2023/03/31 06:13:57;;;;;;;16.10;10.23;;;;;;;;;;5025394;28;20184;-61
2023/03/31 06:16:24;;;;;;;15.27;9.43;;;;;;;;;;5030249;28;20570;-62
2023/03/31 06:18:52;;;;;;;16.20;9.60;;;;;;;;;;5040569;28;20203;-63
2023/03/31 06:21:20;;;;;;;16.00;9.90;;;;;;;;;;5025354;28;20199;-62
2023/03/31 06:23:47;;;;;;;20.37;10.00;;;;;;;;;;5008258;28;20205;-63
2023/03/31 06:26:17;;;;;;;17.50;9.97;;;;;;;;;;5025196;28;20199;-62
2023/03/31 06:28:44;;;;;;;18.70;10.40;;;;;;;;;;5025444;28;20195;-62
2023/03/31 06:31:14;;;;;;;18.00;10.17;;;;;;;;;;5024564;28;20686;-62
2023/03/31 06:33:41;;;;;;;15.13;9.60;;;;;;;;;;5025159;28;20788;-62
2023/03/31 06:36:08;;;;;;;11.67;8.13;;;;;;;;;;5024258;28;20279;-63
2023/03/31 06:38:35;;;;;;;15.17;9.70;;;;;;;;;;5030596;28;20231;-63
2023/03/31 06:41:02;;;;;;;14.70;8.97;;;;;;;;;;5004066;28;20191;-63
2023/03/31 06:43:30;;;;;;;17.93;9.90;;;;;;;;;;5016412;28;20286;-62
2023/03/31 06:45:56;;;;;;;16.83;9.90;;;;;;;;;;5024190;28;20409;-62
2023/03/31 06:48:24;;;;;;;18.83;11.13;;;;;;;;;;5035959;28;20194;-63
2023/03/31 06:50:54;;;;;;;17.23;10.40;;;;;;;;;;5012422;28;20231;-64
2023/03/31 06:53:21;;;;;;;15.47;9.97;;;;;;;;;;5015599;28;20575;-62
2023/03/31 06:55:48;;;;;;;17.67;10.80;;;;;;;;;;5024232;28;20195;-63
2023/03/31 06:58:15;;;;;;;17.53;9.87;;;;;;;;;;5015731;28;20197;-61
2023/03/31 07:00:41;;;;;;;18.23;11.43;;;;;;;;;;5030029;28;20195;-61
2023/03/31 07:03:08;;;;;;;12.87;10.10;;;;;;;;;;5032949;28;20259;-63
2023/03/31 07:05:35;;;;;;;20.57;11.63;;;;;;;;;;5038201;28;20210;-62
2023/03/31 07:08:02;;;;;;;22.20;11.33;;;;;;;;;;5028144;28;20206;-62
2023/03/31 07:10:28;;;;;;;15.30;9.77;;;;;;;;;;5028399;28;20203;-62
2023/03/31 07:12:55;;;;;;;19.23;11.13;;;;;;;;;;5028669;28;20277;-61
2023/03/31 07:15:22;;;;;;;18.07;10.10;;;;;;;;;;5012968;28;20187;-62
2023/03/31 07:17:49;;;;;;;16.50;9.30;;;;;;;;;;5039863;28;20188;-62
2023/03/31 07:20:17;;;;;;;21.53;9.53;;;;;;;;;;5029223;28;20667;-62
2023/03/31 07:22:44;;;;;;;16.03;9.53;;;;;;;;;;5027452;28;20278;-62
2023/03/31 07:25:11;;;;;;;19.73;10.27;;;;;;;;;;5028766;28;20194;-63
2023/03/31 07:27:38;;;;;;;11.53;7.43;;;;;;;;;;5023456;28;20208;-62
2023/03/31 07:30:10;;;;;;;16.20;8.80;;;;;;;;;;5028784;28;20193;-62
2023/03/31 07:32:39;;;;;;;14.53;8.80;;;;;;;;;;5010145;28;20310;-62
2023/03/31 07:35:07;;;;;;;15.27;9.53;;;;;;;;;;5028780;28;20566;-61
2023/03/31 07:37:34;;;;;;;16.07;8.87;;;;;;;;;;5041608;28;20249;-61
2023/03/31 07:40:03;;;;;;;14.03;7.83;;;;;;;;;;5028187;28;20309;-63
2023/03/31 07:42:31;;;;;;;14.77;7.73;;;;;;;;;;5028049;28;20203;-62
2023/03/31 07:44:58;;;;;;;12.87;7.27;;;;;;;;;;5028353;28;21013;-61
2023/03/31 07:47:26;;;;;;;14.13;7.37;;;;;;;;;;5024429;28;20189;-60
2023/03/31 07:49:53;;;;;;;10.80;7.47;;;;;;;;;;5006819;28;20655;-62
2023/03/31 07:52:20;;;;;;;13.50;6.93;;;;;;;;;;5025758;28;20654;-60
2023/03/31 07:54:47;;;;;;;10.97;6.57;;;;;;;;;;5027776;28;20233;-62
2023/03/31 07:57:16;;;;;;;11.33;6.43;;;;;;;;;;5040451;28;20215;-62
2023/03/31 07:59:46;;;;;;;14.73;7.57;;;;;;;;;;5027945;28;20194;-62
2023/03/31 08:02:13;;;;;;;12.80;7.40;;;;;;;;;;5027931;28;20206;-62
2023/03/31 08:04:43;;;;;;;12.20;6.67;;;;;;;;;;5010015;28;20586;-63
2023/03/31 08:07:10;;;;;;;13.30;7.00;;;;;;;;;;5040750;28;20211;-63
2023/03/31 08:09:37;;;;;;;10.37;6.97;;;;;;;;;;5010957;28;20188;-63
2023/03/31 08:12:04;;;;;;;10.67;6.30;;;;;;;;;;5027258;28;20312;-62
2023/03/31 08:14:31;;;;;;;10.33;5.77;;;;;;;;;;5028362;28;20192;-60
2023/03/31 08:17:06;;;;;;;10.97;6.10;;;;;;;;;;5027194;28;20314;-60
2023/03/31 08:19:33;;;;;;;15.23;7.77;;;;;;;;;;5026759;28;20717;-60
2023/03/31 08:22:00;;;;;;;12.57;7.33;;;;;;;;;;5025719;28;20203;-62
2023/03/31 08:24:26;;;;;;;12.77;7.40;;;;;;;;;;5027125;28;20210;-61
2023/03/31 08:26:53;;;;;;;13.60;6.57;;;;;;;;;;5026805;28;20698;-62
2023/03/31 08:29:20;;;;;;;11.47;6.90;;;;;;;;;;5026892;28;20666;-61
2023/03/31 08:31:47;;;;;;;9.73;6.00;;;;;;;;;;5035706;28;20219;-61
2023/03/31 08:34:14;;;;;;;13.20;5.70;;;;;;;;;;5009115;28;20291;-60
2023/03/31 08:36:41;;;;;;;9.10;5.47;;;;;;;;;;5026854;28;20215;-61
2023/03/31 08:39:08;;;;;;;7.83;5.07;;;;;;;;;;5006441;28;20251;-61
2023/03/31 08:41:46;;;;;;;7.87;4.50;;;;;;;;;;5026668;28;20704;-61
2023/03/31 08:44:31;;;;;;;9.87;4.40;;;;;;;;;;5026595;28;20850;-60
2023/03/31 08:47:17;;;;;;;;;;;;;;;;;;;;;
2023/03/31 08:51:04;;;;;;;;;;;;;;;;;;;;;
2023/03/31 08:54:35;;;;;;;8.97;3.90;;;;;;;;;;5032493;28;20226;-62
2023/03/31 09:00:55;;;;;;;7.07;3.70;;;;;;;;;;5027352;28;21170;-62
2023/03/31 09:03:32;;;;;;;7.63;3.33;;;;;;;;;;5032294;28;20203;-61
2023/03/31 09:06:00;;;;;;;8.73;3.97;;;;;;;;;;5023110;28;20650;-63
2023/03/31 09:08:30;;;;;;;8.97;4.27;;;;;;;;;;5009224;28;20233;-62
2023/03/31 09:10:58;;;;;;;7.20;3.97;;;;;;;;;;5033641;28;20190;-61
2023/03/31 09:13:41;;;;;;;9.80;5.07;;;;;;;;;;5008566;28;20212;-63
2023/03/31 09:16:14;;;;;;;8.97;3.33;;;;;;;;;;5023991;28;20190;-63
2023/03/31 09:18:48;;;;;;;4.83;2.77;;;;;;;;;;5027484;28;20219;-65
2023/03/31 09:21:30;;;;;;;6.93;3.00;;;;;;;;;;5033777;28;20229;-65
2023/03/31 09:24:23;;;;;;;7.90;3.00;;;;;;;;;;5032581;28;20764;-65
2023/03/31 09:26:56;;;;;;;10.40;3.33;;;;;;;;;;5030469;28;20199;-65
2023/03/31 09:29:42;;;;;;;6.40;2.87;;;;;;;;;;5030063;28;20192;-65
2023/03/31 09:32:19;;;;;;;8.60;4.00;;;;;;;;;;5012405;28;20277;-65
2023/03/31 09:34:46;;;;;;;7.10;3.53;;;;;;;;;;5030151;28;20184;-65
2023/03/31 09:37:13;;;;;;;7.97;3.30;;;;;;;;;;5029805;28;20249;-65
2023/03/31 09:39:40;;;;;;;5.13;3.00;;;;;;;;;;5038927;28;20752;-64
2023/03/31 09:42:09;;;;;;;8.90;3.27;;;;;;;;;;5038005;28;20449;-62
2023/03/31 09:44:38;;;;;;;9.97;2.97;;;;;;;;;;5036703;28;20815;-63
2023/03/31 09:47:06;;;;;;;7.17;3.20;;;;;;;;;;5037103;28;20187;-62
2023/03/31 09:49:36;;;;;;;5.83;2.77;;;;;;;;;;5020182;28;20191;-63
2023/03/31 09:52:05;;;;;;;6.20;3.60;;;;;;;;;;5030930;28;20226;-63
2023/03/31 09:54:41;;;;;;;4.50;2.67;;;;;;;;;;5026338;28;20222;-62
2023/03/31 09:57:15;;;;;;;5.33;2.30;;;;;;;;;;5026619;28;20203;-62
2023/03/31 09:59:42;;;;;;;6.33;2.90;;;;;;;;;;5007744;28;20732;-62
2023/03/31 10:02:20;;;;;;;4.43;2.50;;;;;;;;;;5008888;28;20662;-62
2023/03/31 10:04:47;;;;;;;4.87;2.40;;;;;;;;;;5026310;28;20587;-62
2023/03/31 10:07:18;;;;;;;6.47;2.50;;;;;;;;;;4998140;28;20229;-62
2023/03/31 10:09:45;;;;;;;7.90;2.80;;;;;;;;;;5008372;28;20206;-63
2023/03/31 10:12:18;;;;;;;7.13;3.17;;;;;;;;;;5005106;28;20216;-63
2023/03/31 10:14:46;;;;;;;5.60;2.90;;;;;;;;;;4997402;28;20269;-65
2023/03/31 10:17:14;;;;;;;5.17;2.77;;;;;;;;;;5018989;28;20183;-64
2023/03/31 10:19:48;;;;;;;8.10;2.57;;;;;;;;;;5025730;28;20659;-65
2023/03/31 10:22:16;;;;;;;7.70;2.90;;;;;;;;;;5008802;28;20197;-66
2023/03/31 10:24:43;;;;;;;6.57;3.10;;;;;;;;;;5026465;28;20241;-66
2023/03/31 10:27:26;;;;;;;5.83;2.83;;;;;;;;;;5026314;28;20740;-66
2023/03/31 10:29:53;;;;;;;8.30;3.50;;;;;;;;;;5026086;28;20206;-65
2023/03/31 10:32:22;;;;;;;8.73;3.10;;;;;;;;;;5012312;28;20222;-64
2023/03/31 10:34:49;;;;;;;8.20;3.10;;;;;;;;;;5008796;28;20196;-66
2023/03/31 10:37:17;;;;;;;7.63;3.47;;;;;;;;;;5024568;28;20183;-64
2023/03/31 10:39:46;;;;;;;7.07;3.70;;;;;;;;;;5035039;28;20726;-64
2023/03/31 10:42:21;;;;;;;9.10;4.77;;;;;;;;;;5015243;28;20237;-63
2023/03/31 10:44:48;;;;;;;9.77;3.97;;;;;;;;;;5025725;28;20207;-64
2023/03/31 10:47:19;;;;;;;10.33;4.17;;;;;;;;;;5025962;28;20209;-62
2023/03/31 10:49:50;;;;;;;6.70;3.90;;;;;;;;;;5030431;28;20187;-62
2023/03/31 10:52:26;;;;;;;8.90;3.97;;;;;;;;;;5012724;28;20214;-65
2023/03/31 10:54:56;;;;;;;5.87;3.23;;;;;;;;;;5025250;28;20194;-65
2023/03/31 10:57:40;;;;;;;8.70;3.67;;;;;;;;;;5017304;28;20199;-66
2023/03/31 11:00:13;;;;;;;8.30;3.90;;;;;;;;;;5025936;28;20326;-67
2023/03/31 11:02:54;;;;;;;7.67;3.67;;;;;;;;;;5025252;28;20550;-66
2023/03/31 11:05:24;;;;;;;6.90;3.40;;;;;;;;;;5025122;28;20290;-67
2023/03/31 11:08:06;;;;;;;7.73;2.80;;;;;;;;;;5034366;28;20214;-67
2023/03/31 11:10:53;;;;;;;7.67;3.30;;;;;;;;;;5035929;28;20231;-68
2023/03/31 11:13:23;;;;;;;6.43;3.27;;;;;;;;;;5039382;28;20240;-67
2023/03/31 11:16:06;;;;;;;9.70;2.47;;;;;;;;;;5029552;28;20188;-67
2023/03/31 11:18:34;;;;;;;6.33;2.53;;;;;;;;;;5025489;28;20198;-66
2023/03/31 11:21:01;;;;;;;4.07;2.17;;;;;;;;;;5033308;28;20197;-67
2023/03/31 11:23:44;;;;;;;3.87;2.00;;;;;;;;;;5040490;28;20222;-67
2023/03/31 11:26:31;;;;;;;5.07;2.10;;;;;;;;;;5028435;28;20199;-68
2023/03/31 11:29:00;;;;;;;5.07;2.30;;;;;;;;;;5025325;28;20196;-68
2023/03/31 11:31:47;;;;;;;3.93;1.93;;;;;;;;;;5018671;28;20195;-66
2023/03/31 11:34:28;;;;;;;4.07;1.97;;;;;;;;;;5030853;28;20630;-69
2023/03/31 11:37:24;;;;;;;6.03;2.30;;;;;;;;;;5024846;28;20611;-69
2023/03/31 11:40:27;;;;;;;3.80;2.30;;;;;;;;;;5011472;28;20311;-68
2023/03/31 11:42:58;;;;;;;5.00;2.03;;;;;;;;;;4957435;28;20288;-69
2023/03/31 11:45:29;;;;;;;5.93;2.57;;;;;;;;;;5013156;28;20218;-68
2023/03/31 11:48:01;;;;;;;4.03;2.50;;;;;;;;;;5006971;28;20200;-69
2023/03/31 11:50:33;;;;;;;7.23;2.43;;;;;;;;;;5032710;28;20209;-68
2023/03/31 11:53:01;;;;;;;3.87;2.30;;;;;;;;;;5010117;28;20250;-68
2023/03/31 11:55:28;;;;;;;5.30;1.93;;;;;;;;;;5027225;28;20862;-68
2023/03/31 11:58:09;;;;;;;4.87;2.30;;;;;;;;;;5040019;28;20718;-68
2023/03/31 12:00:51;;;;;;;4.67;2.60;;;;;;;;;;5028499;28;20238;-68
2023/03/31 12:03:30;;;;;;;5.67;2.97;;;;;;;;;;5027261;28;20196;-68
2023/03/31 12:05:58;;;;;;;5.93;2.50;;;;;;;;;;5028840;28;20195;-68
2023/03/31 12:08:29;;;;;;;6.27;2.80;;;;;;;;;;5013273;28;20279;-68
2023/03/31 12:11:01;;;;;;;8.47;3.00;;;;;;;;;;4999514;28;20230;-67
2023/03/31 12:13:32;;;;;;;5.73;2.90;;;;;;;;;;5027819;28;20231;-67
2023/03/31 12:16:00;;;;;;;5.87;2.60;;;;;;;;;;5028448;28;20191;-66
2023/03/31 12:18:28;;;;;;;6.43;2.70;;;;;;;;;;5027115;28;20308;-69
2023/03/31 12:20:55;;;;;;;6.73;2.60;;;;;;;;;;5025049;28;20195;-66
2023/03/31 12:23:24;;;;;;;6.33;2.40;;;;;;;;;;4993317;28;20199;-66
2023/03/31 12:25:54;;;;;;;3.90;1.93;;;;;;;;;;5009505;28;20192;-66
2023/03/31 12:28:21;;;;;;;5.13;2.50;;;;;;;;;;5009699;28;20301;-66
2023/03/31 12:30:49;;;;;;;5.13;2.30;;;;;;;;;;5009324;28;20203;-65
2023/03/31 12:33:21;;;;;;;5.37;2.20;;;;;;;;;;5009833;28;20619;-66
2023/03/31 12:35:52;;;;;;;11.13;2.40;;;;;;;;;;5004688;28;20288;-66
2023/03/31 12:38:33;;;;;;;6.83;2.70;;;;;;;;;;5023527;28;20227;-66
2023/03/31 12:41:13;;;;;;;4.67;2.20;;;;;;;;;;5027197;28;20704;-67
2023/03/31 12:43:44;;;;;;;5.53;2.73;;;;;;;;;;5009917;28;20281;-66
2023/03/31 12:46:31;;;;;;;5.90;3.10;;;;;;;;;;5025764;28;20207;-66
2023/03/31 12:49:04;;;;;;;5.13;2.43;;;;;;;;;;5027622;28;20269;-64
2023/03/31 12:51:42;;;;;;;8.33;2.80;;;;;;;;;;5010263;28;21094;-66
2023/03/31 12:54:18;;;;;;;4.80;2.67;;;;;;;;;;5029423;28;20227;-65
2023/03/31 12:57:01;;;;;;;5.60;2.50;;;;;;;;;;5028507;28;20935;-66
2023/03/31 12:59:31;;;;;;;5.83;2.63;;;;;;;;;;5032810;28;20624;-66
2023/03/31 13:02:14;;;;;;;6.00;3.23;;;;;;;;;;5031732;28;20245;-66
2023/03/31 13:04:41;;;;;;;5.70;2.90;;;;;;;;;;5032748;28;20195;-66
2023/03/31 13:07:28;;;;;;;4.33;2.60;;;;;;;;;;5032763;28;20192;-66
2023/03/31 13:10:15;;;;;;;6.43;3.13;;;;;;;;;;5017202;28;20223;-66
2023/03/31 13:12:42;;;;;;;5.57;3.27;;;;;;;;;;4996416;28;20235;-66
2023/03/31 13:15:12;;;;;;;4.37;2.57;;;;;;;;;;5031168;28;20199;-66
2023/03/31 13:17:40;;;;;;;8.40;3.03;;;;;;;;;;5031415;28;20262;-66
2023/03/31 13:20:15;;;;;;;6.53;3.10;;;;;;;;;;5014742;28;20528;-66
2023/03/31 13:22:47;;;;;;;7.03;3.30;;;;;;;;;;5030928;28;20194;-65
2023/03/31 13:25:26;;;;;;;7.03;3.30;;;;;;;;;;5014548;28;20246;-65
2023/03/31 13:27:54;;;;;;;5.33;3.20;;;;;;;;;;5031064;28;20657;-65
2023/03/31 13:30:39;;;;;;;6.60;3.00;;;;;;;;;;5032438;28;20551;-65
2023/03/31 13:33:10;;;;;;;4.53;2.40;;;;;;;;;;5031844;28;20219;-65
2023/03/31 13:35:41;;;;;;;5.97;2.97;;;;;;;;;;5030440;28;20202;-66
2023/03/31 13:38:30;;;;;;;4.53;2.50;;;;;;;;;;5014293;28;20267;-65
2023/03/31 13:41:23;;;;;;;5.57;2.30;;;;;;;;;;5030225;28;20204;-66
2023/03/31 13:43:58;;;;;;;3.90;2.40;;;;;;;;;;5009074;28;20290;-65
2023/03/31 13:46:31;;;;;;;5.63;2.87;;;;;;;;;;5032095;28;20186;-65
2023/03/31 13:49:16;;;;;;;5.77;2.37;;;;;;;;;;5031656;28;20254;-64
2023/03/31 13:51:57;;;;;;;4.63;2.47;;;;;;;;;;5031739;28;20273;-65
2023/03/31 13:54:32;;;;;;;4.57;2.70;;;;;;;;;;5031991;28;20635;-65
2023/03/31 13:57:02;;;;;;;5.50;3.20;;;;;;;;;;5013624;28;20340;-66
2023/03/31 13:59:48;;;;;;;6.57;3.00;;;;;;;;;;5031895;28;20207;-65
2023/03/31 14:02:31;;;;;;;6.73;3.10;;;;;;;;;;5031343;28;20605;-66
2023/03/31 14:05:17;;;;;;;4.00;2.63;;;;;;;;;;5031550;28;20191;-65
2023/03/31 14:07:45;;;;;;;5.80;4.47;;;;;;;;;;5028205;28;20278;-65
2023/03/31 14:10:28;;;;;;;6.30;3.97;;;;;;;;;;5010931;28;20191;-65
2023/03/31 14:13:05;;;;;;;5.23;3.00;;;;;;;;;;5026975;28;20211;-66
2023/03/31 14:15:32;;;;;;;4.83;2.30;;;;;;;;;;5022225;28;20223;-67
2023/03/31 14:17:59;;;;;;;3.27;2.50;;;;;;;;;;5007991;28;20277;-66
2023/03/31 14:20:35;;;;;;;14.07;6.57;;;;;;;;;;5026048;28;20202;-67
2023/03/31 14:23:05;;;;;;;5.43;3.00;;;;;;;;;;5023708;28;20195;-67
2023/03/31 14:25:32;;;;;;;5.23;2.57;;;;;;;;;;5025976;28;20997;-66
2023/03/31 14:28:12;;;;;;;3.57;2.00;;;;;;;;;;5026204;28;20202;-66
2023/03/31 14:30:42;;;;;;;6.70;4.10;;;;;;;;;;5026309;28;20203;-67
2023/03/31 14:33:14;;;;;;;3.20;2.43;;;;;;;;;;5008863;28;20637;-66
2023/03/31 14:35:57;;;;;;;5.40;2.30;;;;;;;;;;5026029;28;20543;-66
2023/03/31 14:38:26;;;;;;;4.90;2.90;;;;;;;;;;5009058;28;20226;-66
2023/03/31 14:40:56;;;;;;;5.83;3.97;;;;;;;;;;5027941;28;20192;-64
2023/03/31 14:43:24;;;;;;;5.67;3.47;;;;;;;;;;5009746;28;20179;-65
2023/03/31 14:45:55;;;;;;;5.67;3.70;;;;;;;;;;5013697;28;20669;-65
2023/03/31 14:48:22;;;;;;;7.43;3.77;;;;;;;;;;5030933;28;20191;-65
2023/03/31 14:50:50;;;;;;;6.93;4.47;;;;;;;;;;5030744;28;20261;-65
2023/03/31 14:53:18;;;;;;;9.93;5.23;;;;;;;;;;5030395;28;20199;-65
2023/03/31 14:55:45;;;;;;;9.73;5.80;;;;;;;;;;5012859;28;20184;-65
2023/03/31 14:58:44;;;;;;;9.87;5.53;;;;;;;;;;5013947;28;20191;-65
2023/03/31 15:01:13;;;;;;;10.83;5.87;;;;;;;;;;5030512;28;20187;-65
2023/03/31 15:03:42;;;;;;;11.17;6.17;;;;;;;;;;5030903;28;20270;-65
2023/03/31 15:06:09;;;;;;;11.57;5.50;;;;;;;;;;5030295;28;20282;-65
2023/03/31 15:08:36;;;;;;;12.47;7.13;;;;;;;;;;5029826;28;20563;-65
2023/03/31 15:11:04;;;;;;;8.67;5.70;;;;;;;;;;4996477;28;20667;-65
2023/03/31 15:13:44;;;;;;;9.57;6.40;;;;;;;;;;5013468;28;20709;-65
2023/03/31 15:16:33;;;;;;;11.37;7.00;;;;;;;;;;5030775;28;20202;-65
2023/03/31 15:19:03;;;;;;;8.67;6.47;;;;;;;;;;5030869;28;20191;-65
2023/03/31 15:21:30;;;;;;;11.20;6.70;;;;;;;;;;5030371;28;20200;-65
2023/03/31 15:23:57;;;;;;;10.40;7.07;;;;;;;;;;5014049;28;20187;-65
2023/03/31 15:26:26;;;;;;;12.90;7.63;;;;;;;;;;5034679;28;20678;-65
2023/03/31 15:29:27;;;;;;;10.27;6.43;;;;;;;;;;5006614;28;20189;-64
2023/03/31 15:31:57;;;;;;;10.93;6.73;;;;;;;;;;5016454;28;20199;-65
2023/03/31 15:34:26;;;;;;;12.90;6.43;;;;;;;;;;5017206;28;20641;-64
2023/03/31 15:36:54;;;;;;;13.77;7.93;;;;;;;;;;5017148;28;20195;-65
2023/03/31 15:39:21;;;;;;;13.10;7.53;;;;;;;;;;5016812;28;20234;-65
2023/03/31 15:41:48;;;;;;;17.03;9.57;;;;;;;;;;5034113;28;20192;-65
2023/03/31 15:44:33;;;;;;;12.37;9.07;;;;;;;;;;5033528;28;20188;-65
2023/03/31 15:47:05;;;;;;;10.53;8.07;;;;;;;;;;5034263;28;20180;-65
2023/03/31 15:49:31;;;;;;;75.37;23.43;;;;;;;;;;5026632;28;20196;-65
2023/03/31 15:52:01;;;;;;;38.63;16.20;;;;;;;;;;5039465;28;20608;-63
2023/03/31 15:54:38;;;;;;;67.93;23.13;;;;;;;;;;5044753;28;20222;-64
2023/03/31 15:57:07;;;;;;;29.80;13.23;;;;;;;;;;5006441;28;20813;-64
2023/03/31 15:59:48;;;;;;;44.00;19.50;;;;;;;;;;5040443;28;20550;-64
2023/03/31 16:02:41;;;;;;;16.63;9.93;;;;;;;;;;5032672;28;20211;-65
2023/03/31 16:05:26;;;;;;;17.57;10.50;;;;;;;;;;5022180;28;20245;-65
2023/03/31 16:07:54;;;;;;;17.03;10.00;;;;;;;;;;5012522;28;20295;-65
2023/03/31 16:10:22;;;;;;;22.77;11.77;;;;;;;;;;5033127;28;20180;-65
2023/03/31 16:13:00;;;;;;;35.97;14.80;;;;;;;;;;5032796;28;20191;-65
2023/03/31 16:15:35;;;;;;;14.90;9.50;;;;;;;;;;5005817;28;20697;-65
2023/03/31 16:18:04;;;;;;;67.33;25.53;;;;;;;;;;5032668;28;20279;-65
2023/03/31 16:20:36;;;;;;;14.03;8.50;;;;;;;;;;5031294;28;20191;-65
2023/03/31 16:23:10;;;;;;;17.13;11.40;;;;;;;;;;5033325;28;20270;-65
2023/03/31 16:25:38;;;;;;;22.03;10.97;;;;;;;;;;5015601;28;20748;-66
2023/03/31 16:28:05;;;;;;;23.87;14.67;;;;;;;;;;5031913;28;20326;-65
2023/03/31 16:30:40;;;;;;;34.43;12.07;;;;;;;;;;5032896;28;20222;-66
2023/03/31 16:33:13;;;;;;;16.03;8.93;;;;;;;;;;5021765;28;20207;-68
2023/03/31 16:35:44;;;;;;;28.63;10.43;;;;;;;;;;4993108;28;20204;-69
2023/03/31 16:38:14;;;;;;;27.47;9.60;;;;;;;;;;5027560;28;20321;-66
2023/03/31 16:40:45;;;;;;;30.03;10.47;;;;;;;;;;5030425;28;20221;-68
2023/03/31 16:43:18;;;;;;;27.80;9.93;;;;;;;;;;5004981;28;20192;-68
2023/03/31 16:45:46;;;;;;;35.97;11.67;;;;;;;;;;5026167;28;20195;-67
2023/03/31 16:48:15;;;;;;;45.00;13.27;;;;;;;;;;5027529;28;20313;-64
2023/03/31 16:50:43;;;;;;;47.83;13.73;;;;;;;;;;5030582;28;20202;-64
2023/03/31 16:53:14;;;;;;;47.90;12.37;;;;;;;;;;5031159;28;20188;-65
2023/03/31 16:55:42;;;;;;;35.67;12.03;;;;;;;;;;5031806;28;20552;-64
2023/03/31 16:58:09;;;;;;;42.83;11.67;;;;;;;;;;5031469;28;20191;-65
2023/03/31 17:00:36;;;;;;;53.70;14.37;;;;;;;;;;5032016;28;20203;-65
2023/03/31 17:03:05;;;;;;;76.07;13.27;;;;;;;;;;5029755;28;20197;-65
2023/03/31 17:05:42;;;;;;;44.83;12.10;;;;;;;;;;5032275;28;20191;-65
2023/03/31 17:08:11;;;;;;;56.17;16.73;;;;;;;;;;5032145;28;20611;-65
2023/03/31 17:10:38;;;;;;;44.77;15.87;;;;;;;;;;5031598;28;20202;-64
2023/03/31 17:13:06;;;;;;;31.57;16.87;;;;;;;;;;5028450;28;20874;-64
2023/03/31 17:15:34;;;;;;;20.03;12.23;;;;;;;;;;5029256;28;20238;-64
2023/03/31 17:18:02;;;;;;;25.23;13.17;;;;;;;;;;5030740;28;20223;-64